Time;durP1;ratioP1;P1;durP2;ratioP2;P2;SDS_P1;SDS_P2;PMS_P1;PMS_P2;Temp;Humidity;BMP_temperature;BMP_pressure;BME280_temperature;BME280_humidity;BME280_pressure;Samples;Min_cycle;Max_cycle;Signal;HPM_P1;HPM_P2
2022/04/07 00:00:48;;;;;;;17.00;9.68;;;;;;;8.18;65.60;98533.70;2134770;83;27691;-67
2022/04/07 00:03:49;;;;;;;17.77;9.48;;;;;;;8.15;65.69;98533.45;2107845;84;28703;-67
2022/04/07 00:06:51;;;;;;;15.35;9.63;;;;;;;8.13;65.82;98530.03;2134254;83;31045;-66
2022/04/07 00:09:52;;;;;;;19.80;9.75;;;;;;;8.12;65.84;98526.11;2131979;83;33665;-67
2022/04/07 00:12:54;;;;;;;14.95;9.20;;;;;;;8.15;65.94;98519.24;2117736;83;29327;-66
2022/04/07 00:15:58;;;;;;;18.67;7.90;;;;;;;8.16;66.00;98513.82;2144150;83;27567;-68
2022/04/07 00:18:59;;;;;;;13.62;8.53;;;;;;;8.18;66.00;98517.24;2108667;83;29046;-67
2022/04/07 00:22:02;;;;;;;13.22;7.78;;;;;;;8.22;66.04;98508.54;2131624;83;30761;-67
2022/04/07 00:29:38;;;;;;;13.75;7.70;;;;;;;8.28;65.94;98501.42;2107808;84;27840;-66
2022/04/07 00:32:43;;;;;;;11.73;7.47;;;;;;;8.28;66.01;98496.09;2129775;83;27575;-68
2022/04/07 00:35:45;;;;;;;13.58;8.03;;;;;;;8.28;66.02;98496.58;2146446;82;28709;-67
2022/04/07 00:38:47;;;;;;;13.48;7.75;;;;;;;8.27;66.00;98502.88;2147185;82;32352;-67
2022/04/07 00:41:49;;;;;;;10.70;7.55;;;;;;;8.28;66.05;98495.25;2137549;82;34203;-66
2022/04/07 00:44:51;;;;;;;15.08;8.55;;;;;;;8.24;65.99;98489.28;2111503;82;29435;-67
2022/04/07 00:47:53;;;;;;;16.05;9.30;;;;;;;8.21;66.00;98493.49;2117922;82;27645;-67
2022/04/07 00:50:56;;;;;;;12.80;7.95;;;;;;;8.18;66.01;98485.23;2147195;82;30072;-67
2022/04/07 00:53:58;;;;;;;16.30;8.73;;;;;;;8.17;65.93;98479.98;2145100;82;31404;-66
2022/04/07 00:57:00;;;;;;;13.58;7.75;;;;;;;8.16;65.98;98480.48;2129209;82;34145;-67
2022/04/07 01:00:05;;;;;;;12.90;8.25;;;;;;;8.14;66.01;98480.19;2111282;82;30565;-67
2022/04/07 01:03:07;;;;;;;14.10;7.50;;;;;;;8.11;65.98;98479.09;2128362;82;27735;-66
2022/04/07 01:06:09;;;;;;;11.90;8.13;;;;;;;8.08;66.11;98478.80;2147153;82;29709;-67
2022/04/07 01:09:11;;;;;;;16.90;8.50;;;;;;;8.05;66.16;98480.34;2143591;82;31058;-66
2022/04/07 01:12:13;;;;;;;12.68;8.08;;;;;;;8.05;66.29;98475.02;2140633;83;33562;-67
2022/04/07 01:15:14;;;;;;;14.15;7.62;;;;;;;8.06;66.40;98475.39;2117282;82;29305;-67
2022/04/07 01:18:19;;;;;;;9.50;6.53;;;;;;;8.06;66.36;98470.92;2123706;82;27691;-68
2022/04/07 01:21:21;;;;;;;9.28;6.58;;;;;;;8.07;66.49;98473.09;2127202;82;29092;-67
2022/04/07 01:24:31;;;;;;;8.33;5.87;;;;;;;8.11;66.59;98475.94;2118342;82;31389;-67
2022/04/07 01:27:34;;;;;;;11.97;6.45;;;;;;;8.15;66.62;98465.89;2136651;82;33327;-67
2022/04/07 01:30:35;;;;;;;9.23;6.05;;;;;;;8.23;66.71;98468.90;2137694;82;29322;-66
2022/04/07 01:33:38;;;;;;;14.65;6.62;;;;;;;8.28;66.81;98465.41;2146143;81;27653;-67
2022/04/07 01:36:42;;;;;;;9.60;5.72;;;;;;;8.36;66.82;98467.08;2136870;83;28662;-67
2022/04/07 01:39:45;;;;;;;7.03;4.37;;;;;;;8.45;66.83;98462.03;2108457;83;31828;-68
2022/04/07 01:42:48;;;;;;;10.08;6.03;;;;;;;8.53;66.76;98465.06;2098159;84;33163;-66
2022/04/07 01:45:51;;;;;;;9.78;5.30;;;;;;;8.61;66.68;98460.02;2122191;83;29493;-65
2022/04/07 01:48:53;;;;;;;9.95;6.17;;;;;;;8.69;66.63;98455.96;2108273;84;27739;-65
2022/04/07 01:51:56;;;;;;;10.18;5.42;;;;;;;8.76;66.48;98455.91;2128874;83;30192;-65
2022/04/07 01:54:59;;;;;;;9.28;5.37;;;;;;;8.85;66.37;98455.72;2144493;83;31209;-66
2022/04/07 01:58:02;;;;;;;9.35;5.42;;;;;;;8.91;66.25;98460.13;2128797;83;32955;-66
2022/04/07 02:01:05;;;;;;;9.00;4.75;;;;;;;8.97;66.13;98456.16;2120828;83;29649;-67
2022/04/07 02:04:07;;;;;;;7.87;4.10;;;;;;;9.03;66.03;98457.52;2109355;83;27660;-66
2022/04/07 02:07:09;;;;;;;6.40;4.55;;;;;;;9.08;65.91;98454.05;2107968;84;28727;-66
2022/04/07 02:10:13;;;;;;;6.95;4.65;;;;;;;9.11;65.75;98449.31;2134035;83;31194;-66
2022/04/07 02:13:15;;;;;;;5.60;4.65;;;;;;;9.15;65.65;98449.94;2130075;83;34086;-67
2022/04/07 02:16:19;;;;;;;7.90;4.33;;;;;;;9.16;65.55;98448.97;2143194;83;29931;-67
2022/04/07 02:19:20;;;;;;;6.17;4.22;;;;;;;9.17;65.43;98444.00;2144638;83;27677;-66
2022/04/07 02:22:22;;;;;;;6.65;4.45;;;;;;;9.16;65.37;98442.30;2116546;83;29170;-64
2022/04/07 02:25:27;;;;;;;9.15;4.65;;;;;;;9.17;65.32;98443.16;2120727;83;32295;-66
2022/04/07 02:28:28;;;;;;;8.80;4.72;;;;;;;9.14;65.26;98440.22;2138719;83;33630;-66
2022/04/07 02:31:30;;;;;;;6.30;4.40;;;;;;;9.14;65.20;98441.55;2141645;83;29663;-68
2022/04/07 02:34:31;;;;;;;8.95;4.72;;;;;;;9.12;65.16;98438.13;2143446;82;27654;-65
2022/04/07 02:37:33;;;;;;;7.08;5.08;;;;;;;9.11;65.15;98452.45;2127199;82;29795;-66
2022/04/07 02:40:35;;;;;;;11.30;5.78;;;;;;;9.09;65.14;98441.89;2134190;82;30994;-65
2022/04/07 02:43:37;;;;;;;11.93;5.67;;;;;;;9.08;65.12;98446.03;2146796;82;32927;-65
2022/04/07 02:46:38;;;;;;;8.93;5.90;;;;;;;9.06;65.11;98448.80;2146605;82;29314;-66
2022/04/07 02:49:40;;;;;;;7.90;5.25;;;;;;;9.04;65.15;98440.53;2129704;82;27681;-66
2022/04/07 02:52:42;;;;;;;11.00;5.78;;;;;;;9.05;65.20;98443.58;2118606;82;29435;-67
2022/04/07 02:55:44;;;;;;;10.90;6.35;;;;;;;9.07;65.16;98444.32;2117850;82;31107;-66
2022/04/07 02:58:45;;;;;;;9.63;5.35;;;;;;;9.07;65.21;98446.50;2137811;82;32982;-67
2022/04/07 03:01:47;;;;;;;9.65;5.87;;;;;;;9.10;65.19;98446.27;2131887;82;30344;-67
2022/04/07 03:04:49;;;;;;;8.88;5.53;;;;;;;9.12;65.19;98438.13;2138235;82;27659;-66
2022/04/07 03:07:51;;;;;;;7.55;4.62;;;;;;;9.14;65.20;98437.54;2111168;82;29200;-67
2022/04/07 03:10:53;;;;;;;11.28;5.00;;;;;;;9.18;65.13;98432.84;2132376;82;31863;-68
2022/04/07 03:13:55;;;;;;;6.95;4.28;;;;;;;9.21;65.06;98428.59;2128087;82;33666;-67
2022/04/07 03:16:58;;;;;;;11.95;4.75;;;;;;;9.23;65.01;98433.34;2136261;82;30552;-66
2022/04/07 03:20:01;;;;;;;11.65;4.45;;;;;;;9.24;64.98;98423.89;2132394;82;27608;-64
2022/04/07 03:23:03;;;;;;;7.60;4.10;;;;;;;9.25;64.92;98421.59;2146091;82;29624;-69
2022/04/07 03:26:05;;;;;;;6.72;4.20;;;;;;;9.25;64.87;98423.39;2122268;82;31894;-68
2022/04/07 03:29:07;;;;;;;8.78;4.22;;;;;;;9.24;64.80;98424.36;2119633;82;34378;-66
2022/04/07 03:32:09;;;;;;;7.72;4.58;;;;;;;9.23;64.72;98415.50;2110931;84;29775;-67
2022/04/07 03:35:11;;;;;;;14.38;5.17;;;;;;;9.18;64.63;98414.98;2110123;83;27718;-67
2022/04/07 03:38:13;;;;;;;13.35;5.15;;;;;;;9.12;64.64;98414.09;2125294;83;28724;-67
2022/04/07 03:41:15;;;;;;;9.05;4.62;;;;;;;9.02;64.62;98416.59;2108140;84;31701;-68
2022/04/07 03:44:18;;;;;;;9.90;5.30;;;;;;;8.92;64.67;98416.91;2121655;83;33367;-69
2022/04/07 03:47:20;;;;;;;9.03;5.53;;;;;;;8.81;64.77;98412.34;2107819;84;30101;-67
2022/04/07 03:50:21;;;;;;;10.72;5.00;;;;;;;8.73;64.85;98411.58;2135653;83;27681;-70
2022/04/07 03:53:23;;;;;;;8.75;5.67;;;;;;;8.66;64.95;98410.33;2142398;83;29309;-68
2022/04/07 03:56:25;;;;;;;9.55;5.30;;;;;;;8.59;65.01;98409.05;2139369;82;30921;-65
2022/04/07 03:59:27;;;;;;;7.67;5.22;;;;;;;8.49;65.12;98411.06;2107876;84;33772;-66
2022/04/07 04:02:28;;;;;;;7.75;5.08;;;;;;;8.41;65.21;98419.21;2112717;83;30595;-65
2022/04/07 04:05:30;;;;;;;6.58;5.20;;;;;;;8.31;65.27;98413.18;2124141;83;27666;-69
2022/04/07 04:08:32;;;;;;;9.30;5.90;;;;;;;8.26;65.38;98417.14;2137375;83;29932;-67
2022/04/07 04:11:34;;;;;;;13.15;6.60;;;;;;;8.16;65.46;98412.47;2107330;84;32212;-67
2022/04/07 04:14:36;;;;;;;11.12;6.85;;;;;;;8.10;65.69;98403.55;2136630;83;34241;-67
2022/04/07 04:17:38;;;;;;;16.48;7.92;;;;;;;8.06;65.86;98415.38;2143011;83;30696;-68
2022/04/07 04:20:40;;;;;;;13.93;7.05;;;;;;;8.01;66.00;98404.20;2136221;83;27723;-67
2022/04/07 04:23:42;;;;;;;11.38;7.60;;;;;;;7.99;66.18;98402.96;2107912;84;29347;-66
2022/04/07 04:26:44;;;;;;;13.98;7.12;;;;;;;7.98;66.26;98403.92;2139453;83;31718;-68
2022/04/07 04:29:46;;;;;;;12.50;7.85;;;;;;;8.01;66.39;98402.38;2141423;83;33975;-68
2022/04/07 04:32:48;;;;;;;11.78;7.35;;;;;;;8.06;66.40;98402.05;2142878;83;30511;-63
2022/04/07 04:35:50;;;;;;;13.70;8.15;;;;;;;8.12;66.52;98398.96;2143342;82;27883;-64
2022/04/07 04:38:53;;;;;;;12.40;8.00;;;;;;;8.18;66.49;98395.88;2143606;83;29583;-63
2022/04/07 04:41:55;;;;;;;10.15;7.00;;;;;;;8.21;66.55;98394.30;2142909;82;32239;-64
2022/04/07 04:44:58;;;;;;;14.38;7.10;;;;;;;8.27;66.49;98391.70;2132770;83;34174;-64
2022/04/07 04:48:00;;;;;;;14.30;6.22;;;;;;;8.33;66.46;98389.08;2107937;84;29389;-65
2022/04/07 04:51:05;;;;;;;9.70;7.05;;;;;;;8.40;66.45;98388.99;2131410;83;28235;-65
2022/04/07 04:54:06;;;;;;;11.45;7.17;;;;;;;8.48;66.49;98386.67;2144000;83;29125;-66
2022/04/07 04:57:09;;;;;;;10.05;7.20;;;;;;;8.58;66.43;98383.33;2143973;83;32018;-68
2022/04/07 05:00:12;;;;;;;10.35;6.30;;;;;;;8.67;66.35;98384.01;2142117;83;33364;-67
2022/04/07 05:03:14;;;;;;;14.65;7.33;;;;;;;8.77;66.28;98382.86;2137262;83;29329;-67
2022/04/07 05:06:16;;;;;;;9.28;6.62;;;;;;;8.85;66.22;98379.13;2117021;82;27638;-64
2022/04/07 05:09:18;;;;;;;10.65;8.20;;;;;;;8.95;66.18;98379.30;2107017;84;29062;-66
2022/04/07 05:12:20;;;;;;;11.80;6.65;;;;;;;9.04;66.08;98381.77;2107336;84;31895;-63
2022/04/07 05:15:22;;;;;;;23.30;6.78;;;;;;;9.11;65.97;98378.99;2142976;83;34282;-63
2022/04/07 05:18:24;;;;;;;10.23;6.42;;;;;;;9.19;65.94;98380.63;2143953;82;30122;-63
2022/04/07 05:21:26;;;;;;;10.00;6.17;;;;;;;9.27;65.87;98377.37;2143670;83;27721;-64
2022/04/07 05:24:29;;;;;;;9.83;5.72;;;;;;;9.34;65.74;98382.64;2143466;83;29290;-64
2022/04/07 05:27:36;;;;;;;10.53;6.05;;;;;;;9.44;65.67;98374.75;2143676;83;31774;-64
2022/04/07 05:30:38;;;;;;;15.18;5.67;;;;;;;9.55;65.59;98370.79;2112657;83;33675;-65
2022/04/07 05:33:40;;;;;;;15.53;5.67;;;;;;;9.66;65.51;98367.77;2126432;83;30435;-65
2022/04/07 05:36:43;;;;;;;8.50;4.78;;;;;;;9.78;65.39;98361.95;2143836;81;27729;-63
2022/04/07 05:39:44;;;;;;;7.15;5.03;;;;;;;9.88;65.28;98350.42;2143443;83;29565;-67
2022/04/07 05:42:47;;;;;;;12.70;6.45;;;;;;;9.99;65.08;98352.73;2110387;83;32282;-65
2022/04/07 05:45:50;;;;;;;14.43;5.50;;;;;;;10.08;64.92;98349.34;2113750;83;33392;-64
2022/04/07 05:48:52;;;;;;;10.35;5.10;;;;;;;10.19;64.68;98348.00;2107521;84;30133;-65
2022/04/07 05:52:00;;;;;;;9.28;5.37;;;;;;;10.31;64.56;98349.31;2107584;84;27971;-63
2022/04/07 05:54:58;;;;;;;14.07;5.80;;;;;;;10.45;64.45;98348.25;2139105;82;29646;-64
2022/04/07 05:58:08;;;;;;;10.48;5.72;;;;;;;10.58;64.20;98344.09;2119916;83;31950;-63
2022/04/07 06:01:09;;;;;;;14.25;6.60;;;;;;;10.70;63.98;98340.41;2127434;83;32965;-64
2022/04/07 06:04:11;;;;;;;11.08;4.97;;;;;;;10.84;63.71;98347.29;2109113;83;30488;-66
2022/04/07 06:07:14;;;;;;;10.98;4.80;;;;;;;10.96;63.53;98341.41;2143704;83;27725;-64
2022/04/07 06:10:16;;;;;;;14.28;7.12;;;;;;;11.12;63.40;98338.32;2117267;83;29875;-66
2022/04/07 06:13:18;;;;;;;9.90;5.30;;;;;;;11.29;63.20;98336.89;2122490;83;31904;-66
2022/04/07 06:16:20;;;;;;;12.30;6.33;;;;;;;11.49;63.16;98338.38;2139110;83;33792;-64
2022/04/07 06:19:22;;;;;;;14.73;7.15;;;;;;;11.71;62.96;98332.02;2107387;84;30581;-64
2022/04/07 06:22:24;;;;;;;16.80;7.25;;;;;;;11.94;62.83;98328.67;2134688;83;27746;-64
2022/04/07 06:25:27;;;;;;;10.10;5.10;;;;;;;12.21;62.38;98332.66;2141875;83;29953;-65
2022/04/07 06:28:29;;;;;;;20.43;7.15;;;;;;;12.42;62.07;98329.89;2143954;83;31856;-64
2022/04/07 06:31:31;;;;;;;18.52;8.38;;;;;;;12.65;61.80;98337.73;2143806;83;33520;-67
2022/04/07 06:34:33;;;;;;;22.85;8.83;;;;;;;12.89;61.70;98339.16;2143493;83;30477;-68
2022/04/07 06:37:54;;;;;;;20.43;7.08;;;;;;;13.15;61.37;98331.91;2124799;81;27721;-69
2022/04/07 06:40:57;;;;;;;18.32;6.53;;;;;;;13.44;60.97;98313.59;2116514;83;29251;-67
2022/04/07 06:43:58;;;;;;;17.17;7.78;;;;;;;13.96;60.15;98317.20;2107727;84;31407;-70
2022/04/07 06:47:01;;;;;;;14.58;5.10;;;;;;;14.51;59.91;98319.59;2143035;83;33415;-67
2022/04/07 06:50:04;;;;;;;11.48;5.70;;;;;;;15.09;59.15;98314.81;2119649;83;30513;-66
2022/04/07 06:53:06;;;;;;;7.60;3.55;;;;;;;15.59;58.89;98308.81;2114906;83;27696;-68
2022/04/07 06:56:09;;;;;;;8.00;3.65;;;;;;;16.22;57.79;98308.19;2108129;83;29897;-68
2022/04/07 06:59:12;;;;;;;7.10;3.90;;;;;;;17.03;56.08;98281.23;2143701;83;31220;-69
2022/04/07 07:02:14;;;;;;;7.60;4.15;;;;;;;17.03;56.08;98281.23;2142556;83;34268;-67
2022/04/07 07:05:16;;;;;;;5.87;3.67;;;;;;;17.53;55.44;98294.28;2128703;82;30735;-65
2022/04/07 07:08:20;;;;;;;8.43;4.80;;;;;;;18.03;55.08;98294.55;2107175;84;27723;-69
2022/04/07 07:11:23;;;;;;;9.13;3.50;;;;;;;18.59;54.17;98280.06;2107380;84;28715;-66
2022/04/07 07:14:25;;;;;;;5.90;3.20;;;;;;;19.14;53.23;98274.66;2135081;83;32264;-69
2022/04/07 07:17:33;;;;;;;5.72;2.77;;;;;;;19.64;51.90;98270.98;2126932;83;33901;-67
2022/04/07 07:20:36;;;;;;;3.08;2.42;;;;;;;20.08;51.63;98274.80;2143776;83;29445;-65
2022/04/07 07:23:38;;;;;;;4.40;2.42;;;;;;;20.56;51.22;98270.30;2143456;83;27606;-69
2022/04/07 07:26:40;;;;;;;5.78;2.77;;;;;;;20.91;50.33;98264.20;2112294;83;29897;-65
2022/04/07 07:29:45;;;;;;;5.87;2.80;;;;;;;21.20;49.49;98265.97;2127359;83;32256;-68
2022/04/07 07:32:48;;;;;;;2.62;2.00;;;;;;;21.55;49.01;98252.94;2142714;83;34190;-66
2022/04/07 07:35:50;;;;;;;4.78;2.17;;;;;;;21.76;48.59;98256.15;2143619;81;29741;-66
2022/04/07 07:38:52;;;;;;;4.25;1.90;;;;;;;21.89;45.86;98243.67;2147355;82;27652;-64
2022/04/07 07:41:55;;;;;;;3.77;2.25;;;;;;;22.03;46.13;98242.70;2138872;82;29981;-66
2022/04/07 07:44:57;;;;;;;4.78;2.02;;;;;;;22.16;46.07;98235.95;2146968;82;32218;-66
2022/04/07 07:47:59;;;;;;;2.25;1.80;;;;;;;22.45;46.00;98233.16;2146909;82;34227;-70
2022/04/07 07:51:01;;;;;;;2.67;2.08;;;;;;;22.67;43.74;98231.13;2111323;82;29755;-66
2022/04/07 07:54:04;;;;;;;2.77;2.10;;;;;;;22.76;44.71;98221.69;2111191;82;27724;-69
2022/04/07 07:57:06;;;;;;;3.45;1.90;;;;;;;22.96;44.25;98215.97;2110775;84;29531;-66
2022/04/07 08:00:10;;;;;;;1.70;1.50;;;;;;;23.19;43.95;98213.66;2110743;84;31901;-70
2022/04/07 08:03:12;;;;;;;3.65;2.37;;;;;;;23.28;43.75;98203.39;2111248;82;33201;-70
2022/04/07 08:06:15;;;;;;;1.80;1.62;;;;;;;23.49;42.07;98189.19;2137328;82;30534;-68
2022/04/07 08:09:16;;;;;;;2.37;1.65;;;;;;;23.72;42.17;98196.92;2132827;82;27586;-67
2022/04/07 08:12:18;;;;;;;4.12;1.90;;;;;;;23.78;41.56;98196.59;2114018;82;28953;-67
2022/04/07 08:15:21;;;;;;;2.87;1.90;;;;;;;23.73;41.19;98195.05;2146259;82;31345;-67
2022/04/07 08:18:23;;;;;;;3.60;2.22;;;;;;;23.37;41.13;98204.02;2118991;82;33385;-67
2022/04/07 08:21:27;;;;;;;6.03;2.50;;;;;;;22.94;41.26;98214.78;2127483;82;30661;-67
2022/04/07 08:24:29;;;;;;;2.80;1.95;;;;;;;22.74;41.38;98211.52;2146158;82;27683;-68
2022/04/07 08:27:31;;;;;;;2.60;1.90;;;;;;;22.67;41.18;98207.10;2147438;82;28647;-69
2022/04/07 08:30:34;;;;;;;3.05;1.80;;;;;;;22.61;41.21;98210.11;2141485;82;32209;-71
2022/04/07 08:33:36;;;;;;;2.37;1.60;;;;;;;22.47;40.62;98207.88;2143895;82;33082;-69
2022/04/07 08:36:39;;;;;;;7.60;2.05;;;;;;;22.39;40.23;98205.29;2146961;82;30518;-69
2022/04/07 08:39:42;;;;;;;4.60;1.85;;;;;;;22.32;40.65;98203.91;2147260;82;27589;-68
2022/04/07 08:42:44;;;;;;;2.50;2.20;;;;;;;22.22;40.68;98196.64;2114402;82;29566;-67
2022/04/07 08:45:47;;;;;;;2.25;1.90;;;;;;;22.15;40.55;98189.26;2114083;82;32425;-68
2022/04/07 08:48:49;;;;;;;2.05;1.55;;;;;;;22.12;40.37;98170.57;2110607;84;33801;-70
2022/04/07 08:51:52;;;;;;;4.30;1.70;;;;;;;22.00;40.43;98177.16;2110551;84;30500;-69
2022/04/07 08:54:54;;;;;;;3.17;1.62;;;;;;;21.84;40.54;98176.95;2145077;82;28388;-68
2022/04/07 08:57:56;;;;;;;3.25;1.80;;;;;;;21.66;40.23;98171.19;2124601;82;29093;-70
2022/04/07 09:00:59;;;;;;;2.52;1.77;;;;;;;21.38;39.92;98170.14;2122536;82;31185;-69
2022/04/07 09:04:01;;;;;;;5.25;1.87;;;;;;;21.22;39.98;98171.30;2147062;82;33811;-68
2022/04/07 09:07:04;;;;;;;2.45;1.40;;;;;;;21.18;40.00;98180.07;2145844;82;30505;-69
2022/04/07 09:10:07;;;;;;;3.33;1.75;;;;;;;21.08;39.95;98167.62;2147515;82;27705;-69
2022/04/07 09:13:11;;;;;;;3.15;1.80;;;;;;;20.91;40.10;98168.94;2147591;82;28673;-68
2022/04/07 09:16:15;;;;;;;2.70;1.60;;;;;;;20.90;39.89;98161.31;2147791;82;31073;-70
2022/04/07 09:19:22;;;;;;;2.12;1.42;;;;;;;20.89;40.15;98170.51;2123658;82;33023;-69
2022/04/07 09:22:31;;;;;;;2.85;1.50;;;;;;;20.91;39.90;98162.13;2139426;82;29480;-68
2022/04/07 09:25:33;;;;;;;2.27;1.65;;;;;;;21.00;40.16;98155.53;2129469;82;27543;-69
2022/04/07 09:28:35;;;;;;;2.10;1.42;;;;;;;21.30;40.07;98158.05;2117937;82;30770;-68
2022/04/07 09:31:40;;;;;;;5.35;1.90;;;;;;;21.42;39.75;98156.98;2124869;82;31430;-67
2022/04/07 09:34:42;;;;;;;;;;;;;;;21.57;39.66;98147.86;2113864;84;33110;-68
2022/04/07 09:37:43;;;;;;;5.42;1.37;;;;;;;21.66;39.36;98138.49;2109203;84;29359;-68
2022/04/07 09:40:46;;;;;;;5.83;1.35;;;;;;;21.72;39.54;98135.48;2126957;83;28275;-69
2022/04/07 09:43:58;;;;;;;3.60;1.70;;;;;;;21.73;39.03;98136.66;2107399;84;30004;-69
2022/04/07 09:46:57;;;;;;;3.08;1.80;;;;;;;21.66;38.80;98123.50;2143080;82;31889;-70
2022/04/07 09:50:00;;;;;;;2.22;1.50;;;;;;;21.51;37.99;98125.81;2142427;83;34171;-68
2022/04/07 09:53:07;;;;;;;2.60;1.98;;;;;;;21.14;38.61;98110.70;2132207;83;29251;-67
2022/04/07 09:56:08;;;;;;;2.58;1.80;;;;;;;20.84;38.27;98110.91;2109247;83;27677;-69
2022/04/07 09:59:12;;;;;;;2.50;1.30;;;;;;;20.44;38.28;98101.30;2142649;83;29792;-69
2022/04/07 10:02:17;;;;;;;1.22;1.07;;;;;;;20.14;38.53;98101.42;2117422;83;31602;-68
2022/04/07 10:05:19;;;;;;;;;;;;;;;19.99;38.97;98099.27;2125571;83;33328;-68
2022/04/07 10:08:22;;;;;;;1.92;1.42;;;;;;;19.87;39.26;98093.48;2140156;83;30455;-70
2022/04/07 10:11:24;;;;;;;5.90;1.47;;;;;;;19.69;39.05;98089.80;2107810;84;27610;-70
2022/04/07 10:14:29;;;;;;;2.87;1.82;;;;;;;19.50;39.48;98083.92;2135355;83;29710;-69
2022/04/07 10:17:31;;;;;;;3.45;1.30;;;;;;;19.44;39.26;98076.52;2125945;83;32232;-70
2022/04/07 10:20:37;;;;;;;5.70;1.32;;;;;;;19.37;39.46;98066.06;2107638;84;33762;-69
2022/04/07 10:23:56;;;;;;;3.58;1.35;;;;;;;19.35;39.45;98067.63;2107680;84;29393;-68
2022/04/07 10:27:04;;;;;;;3.45;1.47;;;;;;;19.37;39.38;98057.42;2081512;83;27757;-68
2022/04/07 10:30:15;;;;;;;2.50;1.30;;;;;;;19.44;39.70;98049.36;2132467;83;28640;-68
2022/04/07 10:33:42;;;;;;;4.33;1.37;;;;;;;19.52;39.82;98029.40;2144142;83;31004;-66
2022/04/07 10:36:44;;;;;;;3.12;1.20;;;;;;;19.63;39.75;98018.56;2142225;82;34189;-67
2022/04/07 10:39:47;;;;;;;5.67;1.50;;;;;;;19.69;39.28;98016.45;2143187;83;30525;-67
2022/04/07 10:43:18;;;;;;;3.33;1.30;;;;;;;19.76;39.73;98013.80;2110056;83;27709;-66
2022/04/07 10:46:20;;;;;;;7.50;1.52;;;;;;;19.85;39.70;98009.42;2120891;83;28884;-66
2022/04/07 10:49:25;;;;;;;3.55;1.27;;;;;;;19.83;39.48;97995.69;2123401;83;31998;-65
2022/04/07 10:52:27;;;;;;;2.42;1.02;;;;;;;19.85;39.61;98004.48;2126436;83;33738;-66
2022/04/07 10:55:35;;;;;;;12.10;1.37;;;;;;;19.80;38.83;97996.92;2107016;84;29413;-67
2022/04/07 10:59:03;;;;;;;4.83;1.55;;;;;;;19.71;38.83;97977.69;2104851;84;27691;-67
2022/04/07 11:02:12;;;;;;;0.82;0.80;;;;;;;19.62;39.12;97988.36;2144750;82;28745;-67
2022/04/07 11:05:24;;;;;;;4.70;1.10;;;;;;;19.63;38.84;97983.25;2144948;83;31279;-68
2022/04/07 11:08:26;;;;;;;2.12;1.00;;;;;;;19.57;38.75;97968.57;2139184;83;32403;-66
2022/04/07 11:11:55;;;;;;;1.85;1.20;;;;;;;19.64;39.29;97965.92;2140738;83;30686;-65
2022/04/07 11:15:08;;;;;;;4.92;1.30;;;;;;;19.67;39.07;97955.50;2105236;84;27754;-65
2022/04/07 11:18:30;;;;;;;3.02;1.12;;;;;;;19.73;38.80;97951.17;2104577;84;28723;-67
2022/04/07 11:21:51;;;;;;;2.42;0.80;;;;;;;19.79;39.01;97956.34;2104516;84;32440;-66
2022/04/07 11:24:56;;;;;;;2.60;1.02;;;;;;;19.87;38.73;97947.58;2104956;84;33847;-67
2022/04/07 11:28:22;;;;;;;2.05;0.93;;;;;;;20.08;39.15;97933.66;2104585;84;30612;-68
2022/04/07 11:31:48;;;;;;;1.10;0.82;;;;;;;20.24;38.76;97924.89;2071503;84;27713;-69
2022/04/07 11:34:50;;;;;;;3.20;0.80;;;;;;;20.29;38.42;97920.53;2105179;84;28726;-68
2022/04/07 11:37:52;;;;;;;4.12;0.95;;;;;;;20.44;38.54;97906.84;2105653;84;31031;-69
2022/04/07 11:41:08;;;;;;;2.05;0.60;;;;;;;20.41;37.56;97903.16;2108955;84;34302;-69
2022/04/07 11:44:11;;;;;;;0.90;0.60;;;;;;;20.24;37.63;97886.83;2108848;84;30758;-69
2022/04/07 11:47:33;;;;;;;4.20;0.80;;;;;;;20.04;37.10;97872.56;2150276;82;27982;-68
2022/04/07 11:50:38;;;;;;;1.27;1.00;;;;;;;19.68;37.53;97881.66;2150985;81;28647;-67
2022/04/07 11:53:44;;;;;;;5.37;1.35;;;;;;;19.37;38.24;97868.72;2170960;81;30979;-71
2022/04/07 11:56:46;;;;;;;1.82;0.70;;;;;;;19.21;38.58;97871.15;2179042;81;33556;-69
2022/04/07 11:59:48;;;;;;;2.00;0.70;;;;;;;19.02;38.43;97874.50;2121068;82;29375;-68
2022/04/07 12:03:04;;;;;;;2.52;0.62;;;;;;;18.89;38.69;97872.43;2149880;82;27686;-69
2022/04/07 12:06:06;;;;;;;2.12;0.88;;;;;;;18.92;38.31;97866.63;2176186;81;28716;-69
2022/04/07 12:09:08;;;;;;;0.90;0.90;;;;;;;19.08;38.16;97858.80;2171177;81;32198;-67
2022/04/07 12:12:12;;;;;;;2.05;1.07;;;;;;;19.20;38.26;97865.39;2150168;81;33896;-70
2022/04/07 12:15:16;;;;;;;2.90;1.20;;;;;;;19.37;38.71;97856.50;2150273;82;29324;-69
2022/04/07 12:18:26;;;;;;;2.77;1.80;;;;;;;19.45;38.35;97858.25;2176725;81;27723;-67
2022/04/07 12:21:30;;;;;;;3.52;0.90;;;;;;;19.50;38.80;97843.58;2148848;82;28466;-69
2022/04/07 12:24:32;;;;;;;2.90;0.90;;;;;;;19.56;38.55;97841.42;2150183;82;31000;-67
2022/04/07 12:27:35;;;;;;;7.72;1.20;;;;;;;19.43;37.89;97824.52;2150080;82;33758;-66
2022/04/07 12:30:53;;;;;;;1.40;0.70;;;;;;;19.32;38.25;97814.16;2182884;81;29356;-65
2022/04/07 12:33:54;;;;;;;2.02;1.07;;;;;;;19.12;38.10;97803.94;2152037;81;27486;-66
2022/04/07 12:36:57;;;;;;;4.62;0.60;;;;;;;18.99;38.09;97811.94;2161076;81;29552;-65
2022/04/07 12:39:59;;;;;;;1.32;0.80;;;;;;;19.05;38.34;97792.19;2187715;81;32347;-68
2022/04/07 12:43:02;;;;;;;4.67;1.02;;;;;;;19.16;38.14;97788.13;2187454;81;32863;-69
2022/04/07 12:46:07;;;;;;;1.40;0.70;;;;;;;19.22;38.04;97774.30;2162039;81;29812;-68
2022/04/07 12:49:08;;;;;;;1.00;0.90;;;;;;;19.27;37.88;97769.95;2163741;81;27685;-67
2022/04/07 12:52:14;;;;;;;1.90;0.98;;;;;;;19.35;38.12;97768.98;2186169;81;30016;-69
2022/04/07 12:55:17;;;;;;;1.52;0.90;;;;;;;19.53;37.80;97756.27;2149588;82;31825;-66
2022/04/07 12:58:28;;;;;;;2.85;0.90;;;;;;;19.59;37.73;97755.48;2147043;82;33754;-65
2022/04/07 13:01:31;;;;;;;1.20;0.80;;;;;;;19.63;37.31;97743.70;2140218;81;30539;-67
2022/04/07 13:04:53;;;;;;;3.37;1.32;;;;;;;19.76;37.13;97729.92;2136536;83;27707;-65
2022/04/07 13:07:59;;;;;;;6.40;1.20;;;;;;;19.80;36.19;97726.59;2136297;83;29872;-64
2022/04/07 13:11:01;;;;;;;2.92;1.20;;;;;;;19.72;36.08;97707.72;2136378;83;31772;-67
2022/04/07 13:14:08;;;;;;;3.60;0.93;;;;;;;19.54;36.32;97709.06;2137199;83;34096;-68
2022/04/07 13:17:11;;;;;;;3.40;1.12;;;;;;;19.44;36.61;97702.62;2138296;83;29333;-68
2022/04/07 13:20:13;;;;;;;3.60;0.80;;;;;;;19.37;36.42;97689.53;2138417;83;27630;-68
2022/04/07 13:23:15;;;;;;;3.85;0.82;;;;;;;19.25;36.27;97682.45;2138365;83;28728;-67
2022/04/07 13:26:18;;;;;;;8.00;1.12;;;;;;;19.05;36.05;97681.44;2137074;83;32231;-66
2022/04/07 13:29:20;;;;;;;2.75;1.47;;;;;;;18.81;36.23;97670.77;2136126;83;33722;-66
2022/04/07 13:32:24;;;;;;;0.80;0.80;;;;;;;18.67;36.31;97663.04;2136480;83;29319;-64
2022/04/07 13:35:26;;;;;;;4.28;0.90;;;;;;;18.65;35.80;97659.67;2138399;83;28173;-65
2022/04/07 13:38:33;;;;;;;3.33;0.70;;;;;;;18.63;36.65;97654.96;2163315;82;28833;-66
2022/04/07 13:41:36;;;;;;;7.92;3.40;;;;;;;18.61;36.65;97650.24;2137055;83;32243;-65
2022/04/07 13:44:38;;;;;;;1.92;1.20;;;;;;;18.65;36.59;97649.33;2137496;83;33915;-66
2022/04/07 13:47:40;;;;;;;6.80;4.35;;;;;;;18.69;36.91;97646.56;2137947;83;30489;-66
2022/04/07 13:50:42;;;;;;;4.72;2.30;;;;;;;18.78;36.62;97627.75;2166322;82;27588;-67
2022/04/07 13:53:44;;;;;;;10.23;2.20;;;;;;;18.98;36.82;97631.19;2151825;82;28665;-65
2022/04/07 13:56:46;;;;;;;12.15;5.72;;;;;;;19.15;36.73;97616.83;2137004;83;31435;-65
2022/04/07 13:59:48;;;;;;;5.17;2.60;;;;;;;19.22;36.35;97604.66;2137958;83;33827;-65
2022/04/07 14:02:50;;;;;;;7.53;4.45;;;;;;;19.17;36.30;97604.40;2183241;81;30499;-66
2022/04/07 14:05:54;;;;;;;9.95;3.47;;;;;;;19.06;36.28;97596.28;2160832;81;27599;-66
2022/04/07 14:08:56;;;;;;;2.30;1.07;;;;;;;19.02;36.36;97596.38;2147567;82;29070;-66
2022/04/07 14:11:59;;;;;;;1.32;0.78;;;;;;;18.96;36.04;97597.48;2152118;82;30427;-65
2022/04/07 14:15:00;;;;;;;2.08;1.00;;;;;;;18.88;36.23;97604.36;2153671;82;32950;-65
2022/04/07 14:18:03;;;;;;;4.53;1.17;;;;;;;18.86;36.18;97590.69;2153506;82;29462;-68
2022/04/07 14:21:06;;;;;;;3.87;0.98;;;;;;;18.81;35.95;97585.33;2147925;81;27683;-63
2022/04/07 14:24:08;;;;;;;3.40;1.22;;;;;;;18.74;36.33;97584.45;2160261;81;29887;-63
2022/04/07 14:27:10;;;;;;;4.00;1.00;;;;;;;18.72;36.39;97571.59;2169857;81;31910;-64
2022/04/07 14:30:13;;;;;;;7.03;1.32;;;;;;;18.67;36.03;97558.64;2148755;81;34361;-63